Cochise — WDD8952 — position and weather

sailwx.info

Track history (hours):
 
Tides and Currents Weather Stations Pressure Air Temp Water Temp Dewpoint Dewpoint Depression Visibility Wind Speed Wind Dir Waves Ship Positions

Cochise

Owner: Sause Bros, Coos Bay, OR. More information available from US FCC via Universal Licensing System and Coast Guard Vessel Documentation Center.

Last reported at 2016-Sep-21 23:23 UTC. Time now 2016-Sep-28 06:58 UTC.
Position N 38°27' W 123°37'.

Length 32 m; draft 4.9 m.

Type: Tow > 200 m length. MMSI: 367304990.

Date/timePositionNaut miles runAvg speedWind from/ knotsBaromVisibWave heightAir tempDewpointWater temp
2016-Sep-21 23:23N 38°27' W 123°37'5 5.9
2016-Sep-21 22:33N 38°23' W 123°33'16 5.4
2016-Sep-21 19:33N 38°10' W 123°20'17 5.5
2016-Sep-21 16:33N 37°58' W 123°06'33 4.7
2016-Sep-21 09:33N 37°55' W 122°25'0 0.0
2016-Sep-21 08:31N 37°55' W 122°25'0 0.0
2016-Sep-21 03:31N 37°55' W 122°25'0 0.0
2016-Sep-21 02:31N 37°55' W 122°25'0 0.0
2016-Sep-20 17:31N 37°55' W 122°25'1 0.4
2016-Sep-20 14:33N 37°55' W 122°26'0 0.1
2016-Sep-20 13:33N 37°55' W 122°26'5 1.7
2016-Sep-20 10:33N 38°00' W 122°25'15 0.7
2016-Sep-19 13:31N 38°03' W 122°06'1 1.3
2016-Sep-19 12:33N 38°02' W 122°08'6 6.4
2016-Sep-19 11:33N 38°04' W 122°15'11 5.4
2016-Sep-19 09:31N 37°55' W 122°25'0 0.1
2016-Sep-19 07:29N 37°55' W 122°25'0 0.0
2016-Sep-19 06:32N 37°55' W 122°25'0 0.0
2016-Sep-19 03:23N 37°55' W 122°25'0 0.0
2016-Sep-19 02:32N 37°55' W 122°25'0 0.0
2016-Sep-19 00:32N 37°55' W 122°25'0 0.0
2016-Sep-18 19:32N 37°55' W 122°25'0 0.0
2016-Sep-18 15:32N 37°55' W 122°25'0 0.0
2016-Sep-18 14:29N 37°55' W 122°25'0 0.0
2016-Sep-18 10:32N 37°55' W 122°25'0 0.0
2016-Sep-18 09:32N 37°55' W 122°25'9 1.3
2016-Sep-18 02:32N 37°46' W 122°23'0 0.0
2016-Sep-18 01:32N 37°46' W 122°23'0 0.0
2016-Sep-18 00:32N 37°46' W 122°23'0 0.0
2016-Sep-17 22:32N 37°46' W 122°23'0 0.0
2016-Sep-17 21:32N 37°46' W 122°23'0 0.0
2016-Sep-17 20:32N 37°46' W 122°23'0 0.0
2016-Sep-17 19:14N 37°46' W 122°23'0 0.0
2016-Sep-17 13:32N 37°46' W 122°23'0 0.0
2016-Sep-17 12:29N 37°46' W 122°23'0 0.0
2016-Sep-17 10:32N 37°46' W 122°23'0 0.0
2016-Sep-17 09:32N 37°46' W 122°23'0 0.0
2016-Sep-17 08:32N 37°46' W 122°23'0 0.0
2016-Sep-17 07:32N 37°46' W 122°23'0 0.0
2016-Sep-17 05:32N 37°46' W 122°23'0 0.0
2016-Sep-17 04:32N 37°46' W 122°23'0 0.0
2016-Sep-17 00:32N 37°46' W 122°23'9 1.3
2016-Sep-16 17:33N 37°47' W 122°34'19 9.7
2016-Sep-16 15:33N 37°51' W 122°58'30 9.9
2016-Sep-16 12:33N 38°11' W 123°27'30 9.9
2016-Sep-16 09:33N 38°30' W 123°55'2310.2
2016-Sep-16 07:17N 38°48' W 124°15'26910.0
2016-Sep-15 04:21N 43°16' W 124°50'8 9.7
2016-Sep-15 03:30N 43°24' W 124°48'5010.2
2016-Sep-14 22:32N 44°14' W 124°35'1010.1
2016-Sep-14 21:32N 44°24' W 124°32'41 9.9
2016-Sep-14 17:25N 45°03' W 124°21'8 9.4
2016-Sep-14 16:33N 45°12' W 124°19'28 9.5
2016-Sep-14 13:33N 45°40' W 124°15'9 9.3
2016-Sep-14 12:33N 45°49' W 124°14'2010.0
2016-Sep-14 10:33N 46°09' W 124°10'9 9.1
2016-Sep-14 09:34N 46°14' W 123°59'1110.7
2016-Sep-14 08:34N 46°14' W 123°43'1010.0
2016-Sep-14 07:34N 46°16' W 123°29'8 8.5
2016-Sep-14 06:34N 46°09' W 123°23'27 9.0
2016-Sep-14 03:33N 45°56' W 122°48'24 4.7
2016-Sep-13 22:31N 45°33' W 122°42'0 0.0
2016-Sep-13 20:31N 45°33' W 122°42'0 0.0
2016-Sep-13 17:31N 45°33' W 122°42'0 0.0
2016-Sep-13 16:28N 45°33' W 122°42'0 0.0
2016-Sep-13 11:31N 45°33' W 122°42'0 0.0
2016-Sep-13 09:31N 45°33' W 122°42'0 0.0
2016-Sep-13 07:28N 45°33' W 122°42'0 0.0
2016-Sep-13 06:31N 45°33' W 122°42'0 0.0
2016-Sep-13 04:31N 45°33' W 122°42'0 0.0
2016-Sep-13 02:25N 45°33' W 122°42'0 0.0
2016-Sep-12 23:31N 45°33' W 122°42'6 3.3
2016-Sep-12 21:33N 45°39' W 122°46'3 1.4
2016-Sep-12 19:31N 45°38' W 122°42'5 2.5
2016-Sep-12 17:33N 45°33' W 122°42'0 0.0
2016-Sep-12 14:33N 45°33' W 122°42'0 0.0
2016-Sep-12 13:33N 45°33' W 122°42'0 0.0
2016-Sep-12 12:33N 45°33' W 122°42'0 0.0
2016-Sep-12 11:33N 45°33' W 122°42'0 0.0
2016-Sep-12 10:33N 45°33' W 122°42'0 0.0
2016-Sep-12 07:33N 45°33' W 122°42'0 0.0
2016-Sep-12 06:30N 45°33' W 122°42'0 0.0
2016-Sep-12 03:33N 45°33' W 122°42'0 0.0
2016-Sep-12 01:33N 45°33' W 122°42'0 0.0
2016-Sep-11 23:33N 45°33' W 122°42'  
Track history (hours):
 
Tides and Currents Weather Stations Pressure Air Temp Water Temp Dewpoint Dewpoint Depression Visibility Wind Speed Wind Dir Waves Ship Positions

Cochise

Owner: Sause Bros, Coos Bay, OR. More information available from US FCC via Universal Licensing System and Coast Guard Vessel Documentation Center.

Last reported at 2016-Sep-21 23:23 UTC. Time now 2016-Sep-28 06:58 UTC.
Position N 38°27' W 123°37'.

Length 32 m; draft 4.9 m.

Type: Tow > 200 m length. MMSI: 367304990.

Date/timePositionNaut miles runAvg speedWind from/ knotsBaromVisibWave heightAir tempDewpointWater temp
2016-Sep-21 23:23N 38°27' W 123°37'5 5.9
2016-Sep-21 22:33N 38°23' W 123°33'16 5.4
2016-Sep-21 19:33N 38°10' W 123°20'17 5.5
2016-Sep-21 16:33N 37°58' W 123°06'33 4.7
2016-Sep-21 09:33N 37°55' W 122°25'0 0.0
2016-Sep-21 08:31N 37°55' W 122°25'0 0.0
2016-Sep-21 03:31N 37°55' W 122°25'0 0.0
2016-Sep-21 02:31N 37°55' W 122°25'0 0.0
2016-Sep-20 17:31N 37°55' W 122°25'1 0.4
2016-Sep-20 14:33N 37°55' W 122°26'0 0.1
2016-Sep-20 13:33N 37°55' W 122°26'5 1.7
2016-Sep-20 10:33N 38°00' W 122°25'15 0.7
2016-Sep-19 13:31N 38°03' W 122°06'1 1.3
2016-Sep-19 12:33N 38°02' W 122°08'6 6.4
2016-Sep-19 11:33N 38°04' W 122°15'11 5.4
2016-Sep-19 09:31N 37°55' W 122°25'0 0.1
2016-Sep-19 07:29N 37°55' W 122°25'0 0.0
2016-Sep-19 06:32N 37°55' W 122°25'0 0.0
2016-Sep-19 03:23N 37°55' W 122°25'0 0.0
2016-Sep-19 02:32N 37°55' W 122°25'0 0.0
2016-Sep-19 00:32N 37°55' W 122°25'0 0.0
2016-Sep-18 19:32N 37°55' W 122°25'0 0.0
2016-Sep-18 15:32N 37°55' W 122°25'0 0.0
2016-Sep-18 14:29N 37°55' W 122°25'0 0.0
2016-Sep-18 10:32N 37°55' W 122°25'0 0.0
2016-Sep-18 09:32N 37°55' W 122°25'9 1.3
2016-Sep-18 02:32N 37°46' W 122°23'0 0.0
2016-Sep-18 01:32N 37°46' W 122°23'0 0.0
2016-Sep-18 00:32N 37°46' W 122°23'0 0.0
2016-Sep-17 22:32N 37°46' W 122°23'0 0.0
2016-Sep-17 21:32N 37°46' W 122°23'0 0.0
2016-Sep-17 20:32N 37°46' W 122°23'0 0.0
2016-Sep-17 19:14N 37°46' W 122°23'0 0.0
2016-Sep-17 13:32N 37°46' W 122°23'0 0.0
2016-Sep-17 12:29N 37°46' W 122°23'0 0.0
2016-Sep-17 10:32N 37°46' W 122°23'0 0.0
2016-Sep-17 09:32N 37°46' W 122°23'0 0.0
2016-Sep-17 08:32N 37°46' W 122°23'0 0.0
2016-Sep-17 07:32N 37°46' W 122°23'0 0.0
2016-Sep-17 05:32N 37°46' W 122°23'0 0.0
2016-Sep-17 04:32N 37°46' W 122°23'0 0.0
2016-Sep-17 00:32N 37°46' W 122°23'9 1.3
2016-Sep-16 17:33N 37°47' W 122°34'19 9.7
2016-Sep-16 15:33N 37°51' W 122°58'30 9.9
2016-Sep-16 12:33N 38°11' W 123°27'30 9.9
2016-Sep-16 09:33N 38°30' W 123°55'2310.2
2016-Sep-16 07:17N 38°48' W 124°15'26910.0
2016-Sep-15 04:21N 43°16' W 124°50'8 9.7
2016-Sep-15 03:30N 43°24' W 124°48'5010.2
2016-Sep-14 22:32N 44°14' W 124°35'1010.1
2016-Sep-14 21:32N 44°24' W 124°32'41 9.9
2016-Sep-14 17:25N 45°03' W 124°21'8 9.4
2016-Sep-14 16:33N 45°12' W 124°19'28 9.5
2016-Sep-14 13:33N 45°40' W 124°15'9 9.3
2016-Sep-14 12:33N 45°49' W 124°14'2010.0
2016-Sep-14 10:33N 46°09' W 124°10'9 9.1
2016-Sep-14 09:34N 46°14' W 123°59'1110.7
2016-Sep-14 08:34N 46°14' W 123°43'1010.0
2016-Sep-14 07:34N 46°16' W 123°29'8 8.5
2016-Sep-14 06:34N 46°09' W 123°23'27 9.0
2016-Sep-14 03:33N 45°56' W 122°48'24 4.7
2016-Sep-13 22:31N 45°33' W 122°42'0 0.0
2016-Sep-13 20:31N 45°33' W 122°42'0 0.0
2016-Sep-13 17:31N 45°33' W 122°42'0 0.0
2016-Sep-13 16:28N 45°33' W 122°42'0 0.0
2016-Sep-13 11:31N 45°33' W 122°42'0 0.0
2016-Sep-13 09:31N 45°33' W 122°42'0 0.0
2016-Sep-13 07:28N 45°33' W 122°42'0 0.0
2016-Sep-13 06:31N 45°33' W 122°42'0 0.0
2016-Sep-13 04:31N 45°33' W 122°42'0 0.0
2016-Sep-13 02:25N 45°33' W 122°42'0 0.0
2016-Sep-12 23:31N 45°33' W 122°42'6 3.3
2016-Sep-12 21:33N 45°39' W 122°46'3 1.4
2016-Sep-12 19:31N 45°38' W 122°42'5 2.5
2016-Sep-12 17:33N 45°33' W 122°42'0 0.0
2016-Sep-12 14:33N 45°33' W 122°42'0 0.0
2016-Sep-12 13:33N 45°33' W 122°42'0 0.0
2016-Sep-12 12:33N 45°33' W 122°42'0 0.0
2016-Sep-12 11:33N 45°33' W 122°42'0 0.0
2016-Sep-12 10:33N 45°33' W 122°42'0 0.0
2016-Sep-12 07:33N 45°33' W 122°42'0 0.0
2016-Sep-12 06:30N 45°33' W 122°42'0 0.0
2016-Sep-12 03:33N 45°33' W 122°42'0 0.0
2016-Sep-12 01:33N 45°33' W 122°42'0 0.0
2016-Sep-11 23:33N 45°33' W 122°42'  

Dump ship's entire track history